createdAt,value
2019-03-22T00:00:28.561Z,23.67
2019-03-22T00:02:59.961Z,24.80
2019-03-22T00:05:31.394Z,23.40
2019-03-22T00:08:02.733Z,21.13
2019-03-22T00:10:33.053Z,20.97
2019-03-22T00:13:03.324Z,22.47
2019-03-22T00:15:33.699Z,21.97
2019-03-22T00:18:03.961Z,22.17
2019-03-22T00:20:34.432Z,20.97
2019-03-22T00:23:04.726Z,22.93
2019-03-22T00:25:36.463Z,22.07
2019-03-22T00:28:06.729Z,23.27
2019-03-22T00:30:36.972Z,20.50
2019-03-22T00:33:07.252Z,21.33
2019-03-22T00:35:37.602Z,20.80
2019-03-22T00:38:07.880Z,21.13
2019-03-22T00:40:38.167Z,19.93
2019-03-22T00:43:08.456Z,19.90
2019-03-22T00:45:38.687Z,20.37
2019-03-22T00:48:08.910Z,19.53
2019-03-22T00:50:39.163Z,21.77
2019-03-22T00:53:09.382Z,18.20
2019-03-22T00:55:41.160Z,19.10
2019-03-22T00:58:11.386Z,19.20
2019-03-22T01:00:41.740Z,18.37
2019-03-22T01:03:12.250Z,19.53
2019-03-22T01:05:42.642Z,18.10
2019-03-22T01:08:12.933Z,19.47
2019-03-22T01:10:43.215Z,17.73
2019-03-22T01:13:13.836Z,17.93
2019-03-22T01:15:44.105Z,19.90
2019-03-22T01:18:14.540Z,19.37
2019-03-22T01:20:44.938Z,18.83
2019-03-22T01:23:15.202Z,19.50
2019-03-22T01:25:45.462Z,18.13
2019-03-22T01:28:15.717Z,21.13
2019-03-22T01:30:45.994Z,19.37
2019-03-22T01:33:16.216Z,18.43
2019-03-22T01:35:46.440Z,18.63
2019-03-22T01:38:16.719Z,19.17
2019-03-22T01:40:47.017Z,18.20
2019-03-22T01:43:17.305Z,20.80
2019-03-22T01:45:47.571Z,17.87
2019-03-22T01:48:17.836Z,19.13
2019-03-22T01:50:48.060Z,19.60
2019-03-22T01:53:18.301Z,21.10
2019-03-22T01:55:48.550Z,19.27
2019-03-22T01:58:18.776Z,21.87
2019-03-22T02:00:49.052Z,21.90
2019-03-22T02:03:19.292Z,20.23
2019-03-22T02:05:49.573Z,18.77
2019-03-22T02:08:20.002Z,18.27
2019-03-22T02:10:50.236Z,18.60
2019-03-22T02:13:20.901Z,20.30
2019-03-22T02:15:51.322Z,19.30
2019-03-22T02:18:21.552Z,19.40
2019-03-22T02:20:51.861Z,19.53
2019-03-22T02:23:22.051Z,20.17
2019-03-22T02:25:52.285Z,22.03
2019-03-22T02:28:22.537Z,20.10
2019-03-22T02:30:52.778Z,21.07
2019-03-22T02:33:23.047Z,19.87
2019-03-22T02:35:53.305Z,23.00
2019-03-22T02:38:23.542Z,23.97
2019-03-22T02:40:53.829Z,21.87
2019-03-22T02:43:24.096Z,27.60
2019-03-22T02:45:55.354Z,28.53
2019-03-22T02:48:25.628Z,26.40
2019-03-22T02:50:56.359Z,26.73
2019-03-22T02:53:26.988Z,28.00
2019-03-22T02:55:57.401Z,24.93
2019-03-22T02:58:27.805Z,29.40
2019-03-22T03:00:57.990Z,29.33
2019-03-22T03:03:28.240Z,28.70
2019-03-22T03:05:59.520Z,28.10
2019-03-22T03:08:29.759Z,30.00
2019-03-22T03:11:00.044Z,29.00
2019-03-22T03:13:30.240Z,29.27
2019-03-22T03:16:00.487Z,29.87
2019-03-22T03:18:30.726Z,28.37
2019-03-22T03:21:00.976Z,29.73
2019-03-22T03:23:31.247Z,28.87
2019-03-22T03:26:01.444Z,27.53
2019-03-22T03:28:37.161Z,27.40
2019-03-22T03:31:03.594Z,30.53
2019-03-22T03:33:33.957Z,29.60
2019-03-22T03:36:04.550Z,29.50
2019-03-22T03:38:34.846Z,28.13
2019-03-22T03:41:05.305Z,28.43
2019-03-22T03:43:35.586Z,27.93
2019-03-22T03:46:05.911Z,26.97
2019-03-22T03:48:36.223Z,30.77
2019-03-22T03:51:06.616Z,29.10
2019-03-22T03:53:36.959Z,27.33
2019-03-22T03:56:07.273Z,26.07
2019-03-22T03:58:51.566Z,28.27
2019-03-22T04:01:09.542Z,24.30
2019-03-22T04:03:39.877Z,24.70
2019-03-22T04:06:10.206Z,26.93
2019-03-22T04:08:40.560Z,26.13
2019-03-22T04:11:10.800Z,29.03
2019-03-22T04:13:41.038Z,26.07
2019-03-22T04:16:11.255Z,23.73
2019-03-22T04:18:41.592Z,24.40
2019-03-22T04:21:11.891Z,23.47
2019-03-22T04:23:42.148Z,21.60
2019-03-22T04:26:12.457Z,21.97
2019-03-22T04:28:42.799Z,20.97
2019-03-22T04:31:13.052Z,21.07
2019-03-22T04:33:43.338Z,22.27
2019-03-22T04:36:13.616Z,21.57
2019-03-22T04:38:43.872Z,21.10
2019-03-22T04:41:14.110Z,20.50
2019-03-22T04:44:03.304Z,22.20
2019-03-22T04:46:33.837Z,20.00
2019-03-22T04:49:04.339Z,20.50
2019-03-22T04:51:35.034Z,21.40
2019-03-22T04:54:06.156Z,20.30
2019-03-22T04:56:38.406Z,20.80
2019-03-22T04:59:19.055Z,20.93
2019-03-22T05:01:44.971Z,21.47
2019-03-22T05:04:15.955Z,21.83
2019-03-22T05:06:47.139Z,20.20
2019-03-22T05:09:19.071Z,21.70
2019-03-22T05:11:50.077Z,21.70
2019-03-22T05:14:22.004Z,24.07
2019-03-22T05:16:54.906Z,22.43
2019-03-22T05:19:28.857Z,22.37
2019-03-22T05:22:00.610Z,23.20
2019-03-22T05:24:32.993Z,25.30
2019-03-22T05:27:05.242Z,21.40
2019-03-22T05:29:38.906Z,22.70
2019-03-22T05:32:11.597Z,24.57
2019-03-22T05:34:41.904Z,22.60
2019-03-22T05:37:12.121Z,22.10
2019-03-22T05:39:44.949Z,25.27
2019-03-22T05:42:15.190Z,22.97
2019-03-22T05:44:45.403Z,21.90
2019-03-22T05:47:15.733Z,21.70
2019-03-22T05:49:46.121Z,22.17
2019-03-22T05:52:16.334Z,25.13
2019-03-22T05:54:46.655Z,21.67
2019-03-22T05:57:16.943Z,20.90
2019-03-22T05:59:47.301Z,21.60
2019-03-22T06:02:18.160Z,21.00
2019-03-22T06:04:48.488Z,23.60
2019-03-22T06:07:18.709Z,23.13
2019-03-22T06:09:49.199Z,20.10
2019-03-22T06:12:21.540Z,19.80
2019-03-22T06:14:51.764Z,23.07
2019-03-22T06:17:22.078Z,20.67
2019-03-22T06:19:52.419Z,19.97
2019-03-22T06:22:22.643Z,21.57
2019-03-22T06:24:54.500Z,20.10
2019-03-22T06:27:24.737Z,21.37
2019-03-22T06:29:55.052Z,21.03
2019-03-22T06:32:25.371Z,21.43
2019-03-22T06:34:55.619Z,20.90
2019-03-22T06:37:25.915Z,21.43
2019-03-22T06:39:56.137Z,18.97
2019-03-22T06:42:27.433Z,19.33
2019-03-22T06:44:57.655Z,21.40
2019-03-22T06:47:27.871Z,21.30
2019-03-22T06:49:58.239Z,21.90
2019-03-22T06:52:28.480Z,21.13
2019-03-22T06:54:58.725Z,22.37
2019-03-22T06:57:28.987Z,20.93
2019-03-22T07:00:06.449Z,21.80
2019-03-22T07:02:31.395Z,20.40
2019-03-22T07:05:01.624Z,22.30
2019-03-22T07:07:31.891Z,19.50
2019-03-22T07:10:02.124Z,21.00
2019-03-22T07:12:32.369Z,21.43
2019-03-22T07:15:02.713Z,19.47
2019-03-22T07:17:33.125Z,19.20
2019-03-22T07:20:03.706Z,21.30
2019-03-22T07:22:34.063Z,20.93
2019-03-22T07:25:04.687Z,19.00
2019-03-22T07:27:35.865Z,18.87
2019-03-22T07:30:17.889Z,19.10
2019-03-22T07:32:39.177Z,16.70
2019-03-22T07:35:09.508Z,17.63
2019-03-22T07:37:39.796Z,18.57
2019-03-22T07:40:10.612Z,19.97
2019-03-22T07:42:40.906Z,18.40
2019-03-22T07:45:11.833Z,19.70
2019-03-22T07:47:42.180Z,20.10
2019-03-22T07:50:13.050Z,18.80
2019-03-22T07:52:43.420Z,18.63
2019-03-22T07:55:13.701Z,19.43
2019-03-22T07:57:43.953Z,17.93
2019-03-22T08:00:14.417Z,18.90
2019-03-22T08:02:44.638Z,17.67
2019-03-22T08:05:15.065Z,17.53
2019-03-22T08:07:45.266Z,16.97
2019-03-22T08:10:15.491Z,16.37
2019-03-22T08:12:45.827Z,18.50
2019-03-22T08:15:26.844Z,19.83
2019-03-22T08:17:57.354Z,18.60
2019-03-22T08:20:27.862Z,19.87
2019-03-22T08:22:58.297Z,19.23
2019-03-22T08:25:28.651Z,19.57
2019-03-22T08:27:58.914Z,19.77
2019-03-22T08:30:29.262Z,19.93
2019-03-22T08:32:59.532Z,19.43
2019-03-22T08:35:29.851Z,17.23
2019-03-22T08:38:00.066Z,19.80
2019-03-22T08:40:30.422Z,19.80
2019-03-22T08:43:01.714Z,21.20
2019-03-22T08:45:31.984Z,20.17
2019-03-22T08:48:02.388Z,22.90
2019-03-22T08:50:33.065Z,23.50
2019-03-22T08:53:03.336Z,24.00
2019-03-22T08:55:33.779Z,22.70
2019-03-22T08:58:04.179Z,22.20
2019-03-22T09:00:39.645Z,21.63
2019-03-22T09:03:07.527Z,22.30
2019-03-22T09:05:37.759Z,21.07
2019-03-22T09:08:09.154Z,21.17
2019-03-22T09:10:39.442Z,20.77
2019-03-22T09:13:09.763Z,22.50
2019-03-22T09:15:41.694Z,23.63
2019-03-22T09:18:12.139Z,22.83
2019-03-22T09:20:42.484Z,23.70
2019-03-22T09:23:12.741Z,25.20
2019-03-22T09:25:42.992Z,21.17
2019-03-22T09:28:14.421Z,21.53
2019-03-22T09:30:44.877Z,20.30
2019-03-22T09:33:15.276Z,20.93
2019-03-22T09:35:45.700Z,22.70
2019-03-22T09:38:15.970Z,22.17
2019-03-22T09:40:46.501Z,24.20
2019-03-22T09:43:16.853Z,23.20
2019-03-22T09:45:47.073Z,23.03
2019-03-22T09:48:17.357Z,23.23
2019-03-22T09:50:47.660Z,22.50
2019-03-22T09:53:17.952Z,21.60
2019-03-22T09:55:48.206Z,21.03
2019-03-22T09:58:18.665Z,23.83
2019-03-22T10:00:49.119Z,23.70
2019-03-22T10:03:19.504Z,24.57
2019-03-22T10:05:50.682Z,23.53
2019-03-22T10:08:20.961Z,23.50
2019-03-22T10:10:51.234Z,33.53
2019-03-22T10:13:21.557Z,24.80
2019-03-22T10:15:51.824Z,23.63
2019-03-22T10:18:22.072Z,25.10
2019-03-22T10:20:52.468Z,22.40
2019-03-22T10:23:22.924Z,23.77
2019-03-22T10:25:53.185Z,22.40
2019-03-22T10:28:23.432Z,19.60
2019-03-22T10:30:53.672Z,21.43
2019-03-22T10:33:23.927Z,23.53
2019-03-22T10:35:54.305Z,21.30
2019-03-22T10:38:31.755Z,21.50
2019-03-22T10:40:56.527Z,23.40
2019-03-22T10:43:26.889Z,21.00
2019-03-22T10:45:57.357Z,22.00
2019-03-22T10:48:27.743Z,20.47
2019-03-22T10:50:57.971Z,22.80
2019-03-22T10:53:28.247Z,23.33
2019-03-22T10:55:58.526Z,20.60
2019-03-22T10:58:28.768Z,21.50
2019-03-22T11:01:00.319Z,20.20
2019-03-22T11:03:30.645Z,19.87
2019-03-22T11:06:00.940Z,20.97
2019-03-22T11:08:31.258Z,20.60
2019-03-22T11:11:01.678Z,20.50
2019-03-22T11:13:32.042Z,21.30
2019-03-22T11:16:02.344Z,21.47
2019-03-22T11:18:37.410Z,23.20
2019-03-22T11:21:05.710Z,20.90
2019-03-22T11:23:35.991Z,22.03
2019-03-22T11:26:06.197Z,21.50
2019-03-22T11:28:36.520Z,22.57
2019-03-22T11:31:07.055Z,33.27
2019-03-22T11:33:37.386Z,24.23
2019-03-22T11:36:07.696Z,22.30
2019-03-22T11:38:37.964Z,19.70
2019-03-22T11:41:08.422Z,22.40
2019-03-22T11:43:38.704Z,22.27
2019-03-22T11:46:08.982Z,22.50
2019-03-22T11:48:39.251Z,21.50
2019-03-22T11:51:10.802Z,19.60
2019-03-22T11:53:41.150Z,23.27
2019-03-22T11:56:11.423Z,21.27
2019-03-22T11:58:41.726Z,21.23
2019-03-22T12:01:19.409Z,22.47
2019-03-22T12:03:44.096Z,21.07
2019-03-22T12:06:14.497Z,21.17
2019-03-22T12:08:44.793Z,22.27
2019-03-22T12:11:15.155Z,21.20
2019-03-22T12:13:45.406Z,19.33
2019-03-22T12:16:15.725Z,21.80
2019-03-22T12:18:45.984Z,23.80
2019-03-22T12:21:16.212Z,22.47
2019-03-22T12:23:46.445Z,21.23
2019-03-22T12:26:16.743Z,24.30
2019-03-22T12:28:47.008Z,22.20
2019-03-22T12:31:19.383Z,20.77
2019-03-22T12:33:49.396Z,18.73
2019-03-22T12:36:21.002Z,20.33
2019-03-22T12:38:51.418Z,22.67
2019-03-22T12:41:22.476Z,21.03
2019-03-22T12:43:52.838Z,21.10
2019-03-22T12:46:23.074Z,19.80
2019-03-22T12:48:53.482Z,19.50
2019-03-22T12:51:23.749Z,23.50
2019-03-22T12:53:54.059Z,20.23
2019-03-22T12:56:24.403Z,19.60
2019-03-22T12:58:54.697Z,20.20
2019-03-22T13:01:24.933Z,22.17
2019-03-22T13:03:55.158Z,20.90
2019-03-22T13:06:25.524Z,20.50
2019-03-22T13:08:55.861Z,20.30
2019-03-22T13:11:26.317Z,21.00
2019-03-22T13:13:56.580Z,21.07
2019-03-22T13:16:26.829Z,22.30
2019-03-22T13:18:57.124Z,19.80
2019-03-22T13:21:27.523Z,21.37
2019-03-22T13:23:57.755Z,21.60
2019-03-22T13:26:28.058Z,22.53
2019-03-22T13:28:58.392Z,20.50
2019-03-22T13:31:28.635Z,21.27
2019-03-22T13:33:58.890Z,21.27
2019-03-22T13:36:29.159Z,20.10
2019-03-22T13:38:59.395Z,20.73
2019-03-22T13:41:31.095Z,19.97
2019-03-22T13:44:01.518Z,20.30
2019-03-22T13:46:39.971Z,17.83
2019-03-22T13:49:03.824Z,19.23
2019-03-22T13:51:34.053Z,18.93
2019-03-22T13:54:04.378Z,20.30
2019-03-22T13:56:34.682Z,19.30
2019-03-22T13:59:05.027Z,21.97
2019-03-22T14:01:35.265Z,19.73
2019-03-22T14:04:05.618Z,20.67
2019-03-22T14:06:36.527Z,21.70
2019-03-22T14:09:08.483Z,20.43
2019-03-22T14:11:38.791Z,20.60
2019-03-22T14:14:09.037Z,19.57
2019-03-22T14:16:39.298Z,20.37
2019-03-22T14:19:09.551Z,19.57
2019-03-22T14:21:39.863Z,20.73
2019-03-22T14:24:10.131Z,20.97
2019-03-22T14:26:40.436Z,19.50
2019-03-22T14:29:10.766Z,21.90
2019-03-22T14:31:41.341Z,17.40
2019-03-22T14:34:11.718Z,16.93
2019-03-22T14:36:42.081Z,17.90
2019-03-22T14:39:12.519Z,15.30
2019-03-22T14:41:42.887Z,15.37
2019-03-22T14:44:13.350Z,18.50
2019-03-22T14:46:43.977Z,18.57
2019-03-22T14:49:14.430Z,21.20
2019-03-22T14:51:44.757Z,22.57
2019-03-22T14:54:15.165Z,16.97
2019-03-22T14:56:45.458Z,16.30
2019-03-22T14:59:15.780Z,16.20
2019-03-22T15:01:46.042Z,16.67
2019-03-22T15:04:16.244Z,20.17
2019-03-22T15:06:46.481Z,14.60
2019-03-22T15:09:16.779Z,13.03
2019-03-22T15:11:47.205Z,13.77
2019-03-22T15:14:29.086Z,15.90
2019-03-22T15:17:17.174Z,13.40
2019-03-22T15:20:03.444Z,13.13
2019-03-22T15:22:51.834Z,13.70
2019-03-22T15:26:27.201Z,14.67
2019-03-22T15:29:16.591Z,14.10
2019-03-22T15:31:56.845Z,18.03
2019-03-22T15:34:53.628Z,14.07
2019-03-22T15:37:41.968Z,13.70
2019-03-22T15:40:12.480Z,13.00
2019-03-22T15:42:42.783Z,13.90
2019-03-22T15:45:13.649Z,20.83
2019-03-22T15:47:43.997Z,13.63
2019-03-22T15:50:15.561Z,14.00
2019-03-22T15:52:45.908Z,14.27
2019-03-22T15:55:16.256Z,16.13
2019-03-22T15:57:46.501Z,13.00
2019-03-22T16:00:18.329Z,13.93
2019-03-22T16:02:48.743Z,13.30
2019-03-22T16:05:19.117Z,13.53
2019-03-22T16:07:49.893Z,15.53
2019-03-22T16:10:20.191Z,13.40
2019-03-22T16:12:50.778Z,14.87
2019-03-22T16:15:21.002Z,14.07
2019-03-22T16:17:51.269Z,12.80
2019-03-22T16:20:21.518Z,13.50
2019-03-22T16:22:51.919Z,13.97
2019-03-22T16:25:22.257Z,13.73
2019-03-22T16:27:52.561Z,12.67
2019-03-22T16:30:22.807Z,13.07
2019-03-22T16:32:53.125Z,14.00
2019-03-22T16:35:23.413Z,12.97
2019-03-22T16:37:53.736Z,13.73
2019-03-22T16:40:26.867Z,12.77
2019-03-22T16:42:57.143Z,12.70
2019-03-22T16:45:35.705Z,13.50
2019-03-22T16:48:06.503Z,13.97
2019-03-22T16:50:37.094Z,13.60
2019-03-22T16:53:07.759Z,14.57
2019-03-22T16:55:38.130Z,14.10
2019-03-22T16:58:09.117Z,13.80
2019-03-22T17:00:39.465Z,15.57
2019-03-22T17:03:09.704Z,14.30
2019-03-22T17:05:40.219Z,12.73
2019-03-22T17:08:10.661Z,14.07
2019-03-22T17:10:41.019Z,14.63
2019-03-22T17:13:11.347Z,14.70
2019-03-22T17:15:41.827Z,13.70
2019-03-22T17:18:12.149Z,15.10
2019-03-22T17:20:42.483Z,14.80
2019-03-22T17:23:12.752Z,17.93
2019-03-22T17:25:43.098Z,13.70
2019-03-22T17:28:13.413Z,14.50
2019-03-22T17:30:43.692Z,13.80
2019-03-22T17:33:13.972Z,14.50
2019-03-22T17:35:44.335Z,15.33
2019-03-22T17:38:14.772Z,14.87
2019-03-22T17:40:44.982Z,13.93
2019-03-22T17:43:15.210Z,14.43
2019-03-22T17:45:45.423Z,14.63
2019-03-22T17:48:15.653Z,21.40
2019-03-22T17:50:46.010Z,16.03
2019-03-22T17:53:16.255Z,16.10
2019-03-22T17:55:46.472Z,16.43
2019-03-22T17:58:16.756Z,17.30
2019-03-22T18:00:47.529Z,17.10
2019-03-22T18:03:18.905Z,16.47
2019-03-22T18:05:49.163Z,16.93
2019-03-22T18:08:19.444Z,18.17
2019-03-22T18:10:49.748Z,18.10
2019-03-22T18:13:19.995Z,17.87
2019-03-22T18:15:50.405Z,17.60
2019-03-22T18:18:20.759Z,16.23
2019-03-22T18:20:51.093Z,17.93
2019-03-22T18:23:21.367Z,18.33
2019-03-22T18:25:51.564Z,18.33
2019-03-22T18:28:21.879Z,18.60
2019-03-22T18:30:53.084Z,18.03
2019-03-22T18:33:23.431Z,19.07
2019-03-22T18:35:53.726Z,19.37
2019-03-22T18:38:23.942Z,20.23
2019-03-22T18:40:54.181Z,18.67
2019-03-22T18:43:24.407Z,17.20
2019-03-22T18:45:55.719Z,22.00
2019-03-22T18:48:26.006Z,16.73
2019-03-22T18:50:57.164Z,16.30
2019-03-22T18:53:27.535Z,19.47
2019-03-22T18:55:57.813Z,18.40
2019-03-22T18:58:28.342Z,19.93
2019-03-22T19:01:00.334Z,17.77
2019-03-22T19:03:30.558Z,21.40
2019-03-22T19:06:00.853Z,20.20
2019-03-22T19:08:31.164Z,20.17
2019-03-22T19:11:01.404Z,21.57
2019-03-22T19:13:32.143Z,21.50
2019-03-22T19:16:09.806Z,22.43
2019-03-22T19:18:40.391Z,21.50
2019-03-22T19:21:10.741Z,20.70
2019-03-22T19:23:41.095Z,22.50
2019-03-22T19:26:14.767Z,22.60
2019-03-22T19:28:44.999Z,21.73
2019-03-22T19:31:15.332Z,22.63
2019-03-22T19:33:45.637Z,22.83
2019-03-22T19:36:15.944Z,23.07
2019-03-22T19:38:46.189Z,21.80
2019-03-22T19:41:16.458Z,24.40
2019-03-22T19:43:46.792Z,22.30
2019-03-22T19:46:18.325Z,27.90
2019-03-22T19:48:48.728Z,25.27
2019-03-22T19:51:19.077Z,34.57
2019-03-22T19:53:49.507Z,27.87
2019-03-22T19:56:19.800Z,26.67
2019-03-22T19:58:50.198Z,24.07
2019-03-22T20:01:21.562Z,23.77
2019-03-22T20:03:51.841Z,24.57
2019-03-22T20:06:22.215Z,23.40
2019-03-22T20:08:52.501Z,23.10
2019-03-22T20:11:22.828Z,24.60
2019-03-22T20:13:53.304Z,24.03
2019-03-22T20:16:23.693Z,24.93
2019-03-22T20:18:53.911Z,38.73
2019-03-22T20:21:24.301Z,27.00
2019-03-22T20:23:55.722Z,22.80
2019-03-22T20:26:26.073Z,30.00
2019-03-22T20:28:56.599Z,26.90
2019-03-22T20:31:27.038Z,31.57
2019-03-22T20:33:57.367Z,32.70
2019-03-22T20:36:28.022Z,27.40
2019-03-22T20:38:58.380Z,25.40
2019-03-22T20:41:28.802Z,28.70
2019-03-22T20:43:59.113Z,24.33
2019-03-22T20:46:29.486Z,24.40
2019-03-22T20:48:59.960Z,28.07
2019-03-22T20:51:30.255Z,25.67
2019-03-22T20:54:04.131Z,24.63
2019-03-22T20:56:34.699Z,24.13
2019-03-22T20:59:05.113Z,25.00
2019-03-22T21:01:35.393Z,27.27
2019-03-22T21:04:05.737Z,24.33
2019-03-22T21:06:37.001Z,24.07
2019-03-22T21:09:08.069Z,25.20
2019-03-22T21:11:38.468Z,24.67
2019-03-22T21:14:08.967Z,26.37
2019-03-22T21:16:39.226Z,26.20
2019-03-22T21:19:09.543Z,26.90
2019-03-22T21:21:39.883Z,24.97
2019-03-22T21:24:10.205Z,26.67
2019-03-22T21:26:40.654Z,26.80
2019-03-22T21:29:10.884Z,26.33
2019-03-22T21:31:42.285Z,25.97
2019-03-22T21:34:12.561Z,27.53
2019-03-22T21:36:42.955Z,27.70
2019-03-22T21:39:13.239Z,29.77
2019-03-22T21:41:43.693Z,33.17
2019-03-22T21:44:15.511Z,28.17
2019-03-22T21:46:47.405Z,25.53
2019-03-22T21:49:17.862Z,25.30
2019-03-22T21:51:48.116Z,27.97
2019-03-22T21:54:18.426Z,27.20
2019-03-22T21:56:48.783Z,33.53
2019-03-22T21:59:20.274Z,25.77
2019-03-22T22:01:51.097Z,27.47
2019-03-22T22:04:21.549Z,35.40
2019-03-22T22:06:51.808Z,25.43
2019-03-22T22:09:22.104Z,25.13
2019-03-22T22:11:52.385Z,26.40
2019-03-22T22:14:22.662Z,25.20
2019-03-22T22:16:53.002Z,25.67
2019-03-22T22:19:23.314Z,24.00
2019-03-22T22:21:53.632Z,25.03
2019-03-22T22:24:23.843Z,27.70
2019-03-22T22:26:54.182Z,29.00
2019-03-22T22:29:24.551Z,26.13
2019-03-22T22:31:54.833Z,26.50
2019-03-22T22:34:25.110Z,25.43
2019-03-22T22:36:55.349Z,27.97
2019-03-22T22:39:25.576Z,26.60
2019-03-22T22:41:55.824Z,27.37
2019-03-22T22:44:26.024Z,26.67
2019-03-22T22:46:56.267Z,26.97
2019-03-22T22:49:27.600Z,28.13
2019-03-22T22:51:57.882Z,29.67
2019-03-22T22:54:28.147Z,41.80
2019-03-22T22:56:58.456Z,27.10
2019-03-22T22:59:28.713Z,38.33
2019-03-22T23:01:58.966Z,28.80
2019-03-22T23:04:29.263Z,27.50
2019-03-22T23:06:59.523Z,27.20
2019-03-22T23:09:29.773Z,24.37
2019-03-22T23:11:59.996Z,24.50
2019-03-22T23:14:31.854Z,27.23
2019-03-22T23:17:02.122Z,25.47
2019-03-22T23:19:32.328Z,24.97
2019-03-22T23:22:02.591Z,26.07
2019-03-22T23:24:32.890Z,27.47
2019-03-22T23:27:03.338Z,28.67
2019-03-22T23:29:33.617Z,25.57
2019-03-22T23:32:03.884Z,26.20
2019-03-22T23:34:34.147Z,26.33
2019-03-22T23:37:04.562Z,28.07
2019-03-22T23:39:34.979Z,26.63
2019-03-22T23:42:05.334Z,26.87
2019-03-22T23:44:35.574Z,25.93
2019-03-22T23:47:05.827Z,28.03
2019-03-22T23:49:36.105Z,28.23
2019-03-22T23:52:06.417Z,26.97
2019-03-22T23:54:36.666Z,28.23
2019-03-22T23:57:06.858Z,27.50
2019-03-22T23:59:37.141Z,27.90
